AirNav   Air Wisconsin pilot careers
 
 1530 users online  

4KY7 Mueller Farm Airport
Verona, Kentucky, USA

GOING TO VERONA?


FAA INFORMATION EFFECTIVE 13 SEPTEMBER 2018

Location

FAA Identifier: 4KY7
Lat/Long: 38-49-24.0000N / 084-41-05.0000W
38-49.400000N / 084-41.083333W
38.8233333 / -84.6847222
(estimated)
Elevation: 890 ft. / 271 m (estimated)
Variation: 04W (2000)
From city: 3 miles E of VERONA, KY
Time zone: UTC -4 (UTC -5 during Standard Time)
Zip code: 41092

Airport Operations

Airport use: Private use. Permission required prior to landing
Activation date: 11/2000
Control tower: no
ARTCC: INDIANAPOLIS CENTER
FSS: LOUISVILLE FLIGHT SERVICE STATION
Attendance: UNATNDD
Wind indicator: yes
Segmented circle: no

Airport Communications

WX ASOS at CVG (14 nm N): PHONE 859-767-8210
WX AWOS-3 at K62 (15 nm SE): 123.825 (859-654-1345)

Nearby radio navigation aids

VOR radial/distance  VOR name  Freq  Var
CVGr180/11.6CINCINNATI VORTAC117.3004W
FLMr305/20.4FALMOUTH VOR/DME117.0004W
FFTr018/(39.9)FRANKFORT VOR109.4003W

 
NDB name  Hdg/Dist  Freq  Var  ID
CINCINNATI222/25.833504WLUK .-.. ..- -.-
SPORTYS239/26.724504WPWF .--. .-- ..-.
MADEIRA217/28.537904WMDE -- -.. .

Airport Services

Runway Information

Runway 8/26

Dimensions: 1600 x 60 ft. / 488 x 18 m
Surface: turf
RUNWAY 8  RUNWAY 26
Traffic pattern: leftleft

Airport Ownership and Management from official FAA records

Ownership: Privately-owned
Owner: DAVID R. MUELLER
P.O. BOX 227
VERONA, KY 41092
Phone 859-393-3682
Manager: DAVID R. MUELLER
P.O. BOX 227
VERONA, KY 41092
Phone 859-393-3682

Airport Operational Statistics

Aircraft based on the field: 2
Single engine airplanes: 1
Helicopters: 1
    

Additional Remarks

300 FT TOWER 0.5 NM NORTHWEST OF RY.

Instrument Procedures

There are no published instrument procedures at 4KY7.

Some nearby airports with instrument procedures:

KCVG - Cincinnati/Northern Kentucky International Airport (14 nm N)
K62 - Gene Snyder Airport (15 nm SE)
KLUK - Cincinnati Municipal Airport-Lunken Field (21 nm NE)
I67 - Cincinnati West Airport (26 nm N)
I69 - Clermont County Airport (27 nm NE)
 
Loc | Ops | Rwys | IFR | FBO | Links
Com | Nav | Svcs | Stats | Notes


 
Area around 4KY7 (Mueller Farm Airport)
 
Road maps at: MapQuest Bing Google
 
Aerial photo
No photo
 
Sectional chart

 
Airport distance calculator
Flying to Mueller Farm Airport? Find the distance to fly.

From to 4KY7

Sunrise and sunset
Times for 21-Sep-2018
 Local
(UTC-4)
 Zulu
(UTC)
Morning civil twilight07:0011:00
Sunrise07:2611:26
Sunset19:3723:37
Evening civil twilight20:0400:04

Current date and time
Zulu (UTC)  21-Sep-2018 16:14:31
Local (UTC-4)  21-Sep-2018 12:14:31
 
METAR
KCVG 
14nm N 
211552Z 21012G18KT 10SM FEW120 28/21 A3004 RMK AO2 SLP162 T02780211
KLUK 
21nm NE 
211553Z 19010KT 10SM FEW120 28/23 A3003 RMK AO2 SLP166 T02780228
KI67 
26nm N 
211555Z AUTO 20010G14KT 10SM CLR 29/20 A3001 RMK AO1
KI69 
27nm NE 
211557Z AUTO 20009G15KT 10SM BKN120 27/21 A3006 RMK AO2 T02650207
TAF
KCVG 
14nm N 
211143Z 2112/2218 20008KT P6SM SCT100 FM211800 23014G22KT P6SM VCSH SCT060 BKN100 TEMPO 2121/2122 3SM -TSRA BKN050CB FM212200 27010KT P6SM VCTS BKN040CB BKN180 FM220100 33011KT P6SM SCT012 SCT060 BKN180 FM220400 03012KT P6SM SCT012 BKN180
NOTAMs
Click for the latest NOTAMs
NOTAMs are issued by the DoD/FAA and will open in a separate window not controlled by AirNav.

 

 
 

Would you like to see your business listed on this page?

 If your business provides an interesting product or service to pilots, flight crews, aircraft, or users of the Mueller Farm Airport, you should consider listing it here.  To start the listing process, click on the button below
 
Add a business
 

Other Pages about Mueller Farm Airport

Update a link
 
Copyright © AirNav, LLC. All rights reserved. Privacy Policy  Contact